Polkville, Mississippi
Current Conditions -  °F | °C
As of 7:54 AM on Sunday 21 Dec 2014 (Local Time) from KJAN Reporting Station
Clear Clear  
Wind Chill:   Ceiling: Unl
Heat Index:   Visibility: 10mi
Dew Point:   Wind: 7mph
Humidity: 83%   Direction: 50°NE
Pressure: 30.15"   Gusts: NA
Location:  32.4637°N, 89.5548°W
Report Text: KJAN 211354Z 05006KT 10SM CLR 04/02 A3015 RMK AO2 SLP208 T00440017
Loading
Personal Weather Stations






























Interactive Weather Map New forecast layout! Learn more

10-Day Weather Forecast

Advertisements
Track Severe Weather on mobile